Temp: 13.8°C   Baro: 1008.3mb
  Wind: 9.0mph   Dir: W (260°)
  Rain: 6.4mm (0.0mm/hr)
  Sun: 388W/m2  Humidity: 91%

Historic data

Bath Spa Weather Station Historical Data
Daily Summary for April 17, 2024 Units:  Both    English   Metric
Daily Weekly Monthly Yearly Custom
  High: Low: Average:
Temperature: 51.1 °F /  10.6 °C 37.9 °F /  3.3 °C 44.6 °F /  7 °C
Dew Point: 39.9 °F /  4.4 °C 33.3 °F /  0.7 °C 36.8 °F /  2.7 °C
Humidity: 87.8% 58.2% 74%
Wind Speed: 10.5mph /  16.9km/h - 3.9mph /  6.3km/h
Wind Gust: 19mph /  30.6km/h - -
Wind- - WNW
Pressure: 30.14 in /  1020.5 hPa 30.03 in /  1016.8 hPa -
Precipitation: 0.00 in /  0 mm    
Historical Graphs
 
 
Tabular Data for April 17, 2024
Time Temperature Dew Point Pressure Wind Wind Speed Wind Gust Humidity Rainfall Rate (Hourly) solar
00:09 42.2 °F /  5.7 °C 35.9 °F /  2.2 °C 30.11in /  1019.5hPa NNW 3.3mph /  5.3km/h 5mph /  8km/h 78% 0.00in /  0mm 0 W/m2
00:14 42.1 °F /  5.6 °C 35.8 °F /  2.1 °C 30.11in /  1019.5hPa NNW 2.7mph /  4.3km/h 5mph /  8km/h 78% 0.00in /  0mm 0 W/m2
00:19 42.1 °F /  5.6 °C 35.9 °F /  2.2 °C 30.11in /  1019.5hPa NW 2.9mph /  4.7km/h 5mph /  8km/h 78.6% 0.00in /  0mm 0 W/m2
00:24 42 °F /  5.6 °C 35.8 °F /  2.1 °C 30.11in /  1019.5hPa NW 2.3mph /  3.7km/h 3mph /  4.8km/h 78.8% 0.00in /  0mm 0 W/m2
00:29 41.9 °F /  5.5 °C 35.8 °F /  2.1 °C 30.11in /  1019.5hPa NW 2.6mph /  4.2km/h 4mph /  6.4km/h 79% 0.00in /  0mm 0 W/m2
00:34 41.7 °F /  5.4 °C 35.8 °F /  2.1 °C 30.11in /  1019.5hPa NW 2mph /  3.2km/h 4mph /  6.4km/h 79% 0.00in /  0mm 0 W/m2
00:39 41.7 °F /  5.4 °C 35.8 °F /  2.1 °C 30.11in /  1019.5hPa NW 1.5mph /  2.4km/h 4mph /  6.4km/h 79% 0.00in /  0mm 0 W/m2
00:44 41.5 °F /  5.3 °C 35.4 °F /  1.9 °C 30.11in /  1019.5hPa NW 1.3mph /  2.1km/h 3mph /  4.8km/h 78.6% 0.00in /  0mm 0 W/m2
00:49 41.4 °F /  5.2 °C 35.1 °F /  1.7 °C 30.11in /  1019.5hPa NW 1.5mph /  2.4km/h 3mph /  4.8km/h 78% 0.00in /  0mm 0 W/m2
00:54 41.4 °F /  5.2 °C 35.3 °F /  1.8 °C 30.11in /  1019.5hPa NW 1.6mph /  2.6km/h 3mph /  4.8km/h 78.8% 0.00in /  0mm 0 W/m2
00:59 41.3 °F /  5.2 °C 35.3 °F /  1.8 °C 30.11in /  1019.5hPa NW 2mph /  3.2km/h 5mph /  8km/h 79% 0.00in /  0mm 0 W/m2
01:03 41.3 °F /  5.2 °C 35.3 °F /  1.8 °C 30.11in /  1019.5hPa NW 2.7mph /  4.3km/h 5mph /  8km/h 79% 0.00in /  0mm 0 W/m2
01:09 41.2 °F /  5.1 °C 35.2 °F /  1.8 °C 30.11in /  1019.5hPa NW 2.5mph /  4km/h 4mph /  6.4km/h 79% 0.00in /  0mm 0 W/m2
01:14 41.2 °F /  5.1 °C 35.2 °F /  1.8 °C 30.11in /  1019.5hPa NNW 2.1mph /  3.4km/h 5mph /  8km/h 79% 0.00in /  0mm 0 W/m2
01:19 40.9 °F /  4.9 °C 35 °F /  1.7 °C 30.11in /  1019.5hPa NW 2.5mph /  4km/h 5mph /  8km/h 79% 0.00in /  0mm 0 W/m2
01:24 40.8 °F /  4.9 °C 34.9 °F /  1.6 °C 30.11in /  1019.5hPa NW 2.5mph /  4km/h 5mph /  8km/h 79% 0.00in /  0mm 0 W/m2
01:29 40.7 °F /  4.8 °C 34.8 °F /  1.6 °C 30.11in /  1019.5hPa NW 2.6mph /  4.2km/h 4mph /  6.4km/h 79% 0.00in /  0mm 0 W/m2
01:34 40.6 °F /  4.8 °C 34.7 °F /  1.5 °C 30.10in /  1019.2hPa NW 4mph /  6.4km/h 6mph /  9.7km/h 79% 0.00in /  0mm 0 W/m2
01:39 40.5 °F /  4.7 °C 34.6 °F /  1.4 °C 30.10in /  1019.2hPa NW 2.5mph /  4km/h 5mph /  8km/h 79% 0.00in /  0mm 0 W/m2
01:44 40.5 °F /  4.7 °C 34.5 °F /  1.4 °C 30.10in /  1019.2hPa NW 1.3mph /  2.1km/h 3mph /  4.8km/h 79% 0.00in /  0mm 0 W/m2
01:49 40.5 °F /  4.7 °C 34.5 °F /  1.4 °C 30.10in /  1019.2hPa NW 0.4mph /  0.6km/h 3mph /  4.8km/h 79% 0.00in /  0mm 0 W/m2
01:54 40.3 °F /  4.6 °C 34.3 °F /  1.3 °C 30.10in /  1019.2hPa NW 0.6mph /  1km/h 2mph /  3.2km/h 79% 0.00in /  0mm 0 W/m2
01:59 40.1 °F /  4.5 °C 34.2 °F /  1.2 °C 30.10in /  1019.2hPa NW 1.1mph /  1.8km/h 2mph /  3.2km/h 79.2% 0.00in /  0mm 0 W/m2
02:04 39.8 °F /  4.3 °C 34.2 °F /  1.2 °C 30.09in /  1018.8hPa NW 0.4mph /  0.6km/h 2mph /  3.2km/h 80% 0.00in /  0mm 0 W/m2
02:09 39.7 °F /  4.3 °C 34.1 °F /  1.2 °C 30.09in /  1018.8hPa NW 0.2mph /  0.3km/h 1mph /  1.6km/h 80% 0.00in /  0mm 0 W/m2
02:14 39.5 °F /  4.2 °C 33.9 °F /  1.1 °C 30.10in /  1019.2hPa NW 0.4mph /  0.6km/h 2mph /  3.2km/h 80% 0.00in /  0mm 0 W/m2
02:19 39.1 °F /  3.9 °C 33.6 °F /  0.9 °C 30.10in /  1019.2hPa NW 0.9mph /  1.4km/h 2mph /  3.2km/h 80.4% 0.00in /  0mm 0 W/m2
02:24 38.8 °F /  3.8 °C 33.4 °F /  0.8 °C 30.09in /  1018.8hPa NW 0.9mph /  1.4km/h 3mph /  4.8km/h 81% 0.00in /  0mm 0 W/m2
02:29 38.8 °F /  3.8 °C 33.4 °F /  0.8 °C 30.09in /  1018.8hPa NW 0.9mph /  1.4km/h 3mph /  4.8km/h 81% 0.00in /  0mm 0 W/m2
02:34 38.7 °F /  3.7 °C 33.5 °F /  0.8 °C 30.09in /  1018.8hPa NW 1.1mph /  1.8km/h 2mph /  3.2km/h 81.6% 0.00in /  0mm 0 W/m2
02:39 38.7 °F /  3.7 °C 33.7 °F /  0.9 °C 30.09in /  1018.8hPa NW 1.1mph /  1.8km/h 4mph /  6.4km/h 82% 0.00in /  0mm 0 W/m2
02:44 38.7 °F /  3.7 °C 33.6 °F /  0.9 °C 30.09in /  1018.8hPa NW 0.9mph /  1.4km/h 3mph /  4.8km/h 82% 0.00in /  0mm 0 W/m2
02:49 38.7 °F /  3.7 °C 33.9 °F /  1.1 °C 30.09in /  1018.8hPa NW 0.4mph /  0.6km/h 2mph /  3.2km/h 82.8% 0.00in /  0mm 0 W/m2
02:54 38.7 °F /  3.7 °C 34 °F /  1.1 °C 30.09in /  1018.8hPa Calm     83% 0.00in /  0mm 0 W/m2
02:59 38.7 °F /  3.7 °C 34 °F /  1.1 °C 30.09in /  1018.8hPa Calm     83% 0.00in /  0mm 0 W/m2
03:04 38.3 °F /  3.5 °C 33.6 °F /  0.9 °C 30.09in /  1018.8hPa NW 0.8mph /  1.3km/h 3mph /  4.8km/h 83% 0.00in /  0mm 0 W/m2
03:09 38.1 °F /  3.4 °C 33.4 °F /  0.8 °C 30.09in /  1018.8hPa NW 1.7mph /  2.7km/h 3mph /  4.8km/h 83% 0.00in /  0mm 0 W/m2
03:14 37.9 °F /  3.3 °C 33.3 °F /  0.7 °C 30.09in /  1018.8hPa Calm   2mph /  3.2km/h 83% 0.00in /  0mm 0 W/m2
03:19 37.9 °F /  3.3 °C 33.5 °F /  0.8 °C 30.09in /  1018.8hPa NW 2.4mph /  3.9km/h 4mph /  6.4km/h 83.6% 0.00in /  0mm 0 W/m2
03:24 37.9 °F /  3.3 °C 33.6 °F /  0.9 °C 30.09in /  1018.8hPa NW 2mph /  3.2km/h 4mph /  6.4km/h 84% 0.00in /  0mm 0 W/m2
03:29 38 °F /  3.3 °C 33.7 °F /  0.9 °C 30.09in /  1018.8hPa NW 1.3mph /  2.1km/h 3mph /  4.8km/h 84% 0.00in /  0mm 0 W/m2
03:34 38.1 °F /  3.4 °C 33.8 °F /  1 °C 30.09in /  1018.8hPa NW 1.1mph /  1.8km/h 3mph /  4.8km/h 84% 0.00in /  0mm 0 W/m2
03:39 38.5 °F /  3.6 °C 34.2 °F /  1.2 °C 30.09in /  1018.8hPa Calm   3mph /  4.8km/h 84% 0.00in /  0mm 0 W/m2
03:44 38.7 °F /  3.7 °C 34.2 °F /  1.2 °C 30.09in /  1018.8hPa NW 0.8mph /  1.3km/h 3mph /  4.8km/h 84% 0.00in /  0mm 0 W/m2
03:49 38.7 °F /  3.7 °C 34.2 °F /  1.2 °C 30.09in /  1018.8hPa NW 2.5mph /  4km/h 4mph /  6.4km/h 84% 0.00in /  0mm 0 W/m2
03:54 38.9 °F /  3.8 °C 34.4 °F /  1.3 °C 30.09in /  1018.8hPa WNW 2.4mph /  3.9km/h 4mph /  6.4km/h 84% 0.00in /  0mm 0 W/m2
03:59 39.3 °F /  4.1 °C 34.8 °F /  1.6 °C 30.09in /  1018.8hPa WNW 0.9mph /  1.4km/h 4mph /  6.4km/h 84% 0.00in /  0mm 0 W/m2
04:04 39.5 °F /  4.2 °C 35 °F /  1.7 °C 30.09in /  1018.8hPa WNW 1.7mph /  2.7km/h 3mph /  4.8km/h 84% 0.00in /  0mm 0 W/m2
04:09 39.6 °F /  4.2 °C 35.1 °F /  1.7 °C 30.09in /  1018.8hPa WNW 0.5mph /  0.8km/h 3mph /  4.8km/h 84% 0.00in /  0mm 0 W/m2
04:14 39.7 °F /  4.3 °C 35.3 °F /  1.8 °C 30.09in /  1018.8hPa WNW 1.6mph /  2.6km/h 3mph /  4.8km/h 84.2% 0.00in /  0mm 0 W/m2
04:19 39.7 °F /  4.3 °C 35.6 °F /  2 °C 30.08in /  1018.5hPa WNW 0.8mph /  1.3km/h 3mph /  4.8km/h 85% 0.00in /  0mm 0 W/m2
04:24 39.9 °F /  4.4 °C 35.8 °F /  2.1 °C 30.08in /  1018.5hPa WNW 1.3mph /  2.1km/h 3mph /  4.8km/h 85% 0.00in /  0mm 0 W/m2
04:29 40.1 °F /  4.5 °C 36 °F /  2.2 °C 30.08in /  1018.5hPa WNW 1.6mph /  2.6km/h 3mph /  4.8km/h 85% 0.00in /  0mm 0 W/m2
04:34 40.2 °F /  4.6 °C 36.1 °F /  2.3 °C 30.08in /  1018.5hPa WNW 0.9mph /  1.4km/h 3mph /  4.8km/h 85% 0.00in /  0mm 0 W/m2
04:39 40.3 °F /  4.6 °C 36.1 °F /  2.3 °C 30.08in /  1018.5hPa WNW 0.2mph /  0.3km/h 2mph /  3.2km/h 85% 0.00in /  0mm 0 W/m2
04:44 40.3 °F /  4.6 °C 36.1 °F /  2.3 °C 30.08in /  1018.5hPa WNW 1mph /  1.6km/h 3mph /  4.8km/h 85% 0.00in /  0mm 0 W/m2
04:49 40.3 °F /  4.6 °C 36.1 °F /  2.3 °C 30.08in /  1018.5hPa WNW 0.2mph /  0.3km/h 1mph /  1.6km/h 85% 0.00in /  0mm 0 W/m2
04:54 40.3 °F /  4.6 °C 36.1 °F /  2.3 °C 30.08in /  1018.5hPa WNW 0.4mph /  0.6km/h 2mph /  3.2km/h 85% 0.00in /  0mm 0 W/m2
04:59 40.3 °F /  4.6 °C 36.1 °F /  2.3 °C 30.08in /  1018.5hPa Calm   2mph /  3.2km/h 85% 0.00in /  0mm 0 W/m2
05:04 40.2 °F /  4.6 °C 36 °F /  2.2 °C 30.09in /  1018.8hPa Calm     85% 0.00in /  0mm 0 W/m2
05:09 40.1 °F /  4.5 °C 36 °F /  2.2 °C 30.09in /  1018.8hPa Calm     85% 0.00in /  0mm 0 W/m2
05:14 40.1 °F /  4.5 °C 36 °F /  2.2 °C 30.08in /  1018.5hPa Calm   1mph /  1.6km/h 85% 0.00in /  0mm 0 W/m2
05:19 40.1 °F /  4.5 °C 36 °F /  2.2 °C 30.08in /  1018.5hPa Calm     85% 0.00in /  0mm 0 W/m2
05:24 39.9 °F /  4.4 °C 35.8 °F /  2.1 °C 30.08in /  1018.5hPa Calm     85% 0.00in /  0mm 0 W/m2
05:29 39.7 °F /  4.3 °C 35.6 °F /  2 °C 30.08in /  1018.5hPa WNW 0.2mph /  0.3km/h 1mph /  1.6km/h 85% 0.00in /  0mm 0 W/m2
05:34 39.6 °F /  4.2 °C 35.4 °F /  1.9 °C 30.08in /  1018.5hPa WNW 0.2mph /  0.3km/h 1mph /  1.6km/h 85% 0.00in /  0mm 0 W/m2
05:39 39.3 °F /  4.1 °C 35.3 °F /  1.8 °C 30.08in /  1018.5hPa WNW 0.8mph /  1.3km/h 3mph /  4.8km/h 85.4% 0.00in /  0mm 0 W/m2
05:44 39 °F /  3.9 °C 35.2 °F /  1.8 °C 30.08in /  1018.5hPa WNW 1.3mph /  2.1km/h 3mph /  4.8km/h 86% 0.00in /  0mm 0 W/m2
05:49 38.9 °F /  3.8 °C 35.1 °F /  1.7 °C 30.08in /  1018.5hPa WNW 1.8mph /  2.9km/h 3mph /  4.8km/h 86% 0.00in /  0mm 0 W/m2
05:54 38.8 °F /  3.8 °C 35 °F /  1.7 °C 30.08in /  1018.5hPa WNW 1.3mph /  2.1km/h 3mph /  4.8km/h 86% 0.00in /  0mm 0 W/m2
05:59 38.8 °F /  3.8 °C 35 °F /  1.7 °C 30.08in /  1018.5hPa WNW 1.1mph /  1.8km/h 2mph /  3.2km/h 86% 0.00in /  0mm 0 W/m2
06:04 38.7 °F /  3.7 °C 35.1 °F /  1.7 °C 30.08in /  1018.5hPa WNW 1.2mph /  1.9km/h 2mph /  3.2km/h 86.8% 0.00in /  0mm 0 W/m2
06:09 38.7 °F /  3.7 °C 35.1 °F /  1.7 °C 30.08in /  1018.5hPa WNW 0.6mph /  1km/h 4mph /  6.4km/h 87% 0.00in /  0mm 0 W/m2
06:14 38.7 °F /  3.7 °C 35.1 °F /  1.7 °C 30.08in /  1018.5hPa WNW 0.2mph /  0.3km/h 3mph /  4.8km/h 87% 0.00in /  0mm 5 W/m2
06:19 38.8 °F /  3.8 °C 35.2 °F /  1.8 °C 30.08in /  1018.5hPa Calm   1mph /  1.6km/h 87% 0.00in /  0mm 9 W/m2
06:24 38.7 °F /  3.7 °C 35.1 °F /  1.7 °C 30.08in /  1018.5hPa Calm     87% 0.00in /  0mm 11 W/m2
06:29 38.6 °F /  3.7 °C 35 °F /  1.7 °C 30.08in /  1018.5hPa Calm   1mph /  1.6km/h 87% 0.00in /  0mm 12 W/m2
06:34 38.5 °F /  3.6 °C 34.9 °F /  1.6 °C 30.08in /  1018.5hPa Calm     87% 0.00in /  0mm 14 W/m2
06:39 38.2 °F /  3.4 °C 34.6 °F /  1.4 °C 30.08in /  1018.5hPa Calm     87% 0.00in /  0mm 16 W/m2
06:44 38.1 °F /  3.4 °C 34.5 °F /  1.4 °C 30.08in /  1018.5hPa WNW 0.2mph /  0.3km/h 1mph /  1.6km/h 87% 0.00in /  0mm 18 W/m2
06:49 38.5 °F /  3.6 °C 34.9 °F /  1.6 °C 30.09in /  1018.8hPa Calm     87% 0.00in /  0mm 21 W/m2
06:54 38.7 °F /  3.7 °C 35.1 °F /  1.7 °C 30.09in /  1018.8hPa Calm     87% 0.00in /  0mm 23 W/m2
06:59 38.8 °F /  3.8 °C 35.2 °F /  1.8 °C 30.09in /  1018.8hPa WNW 0.2mph /  0.3km/h 2mph /  3.2km/h 87% 0.00in /  0mm 25 W/m2
07:04 38.7 °F /  3.7 °C 35.1 °F /  1.7 °C 30.09in /  1018.8hPa Calm   1mph /  1.6km/h 87% 0.00in /  0mm 26 W/m2
07:09 38.7 °F /  3.7 °C 35.2 °F /  1.8 °C 30.09in /  1018.8hPa Calm     87.2% 0.00in /  0mm 51 W/m2
07:14 38.8 °F /  3.8 °C 35.2 °F /  1.8 °C 30.09in /  1018.8hPa WNW 1.6mph /  2.6km/h 3mph /  4.8km/h 87% 0.00in /  0mm 53 W/m2
07:19 39.4 °F /  4.1 °C 35.9 °F /  2.2 °C 30.09in /  1018.8hPa WNW 2.9mph /  4.7km/h 5mph /  8km/h 87.4% 0.00in /  0mm 35 W/m2
07:24 39.9 °F /  4.4 °C 36.6 °F /  2.6 °C 30.09in /  1018.8hPa West 1mph /  1.6km/h 5mph /  8km/h 87.8% 0.00in /  0mm 46 W/m2
07:29 40.5 °F /  4.7 °C 36.9 °F /  2.7 °C 30.09in /  1018.8hPa West 2mph /  3.2km/h 6mph /  9.7km/h 87% 0.00in /  0mm 70 W/m2
07:34 41 °F /  5 °C 37.4 °F /  3 °C 30.09in /  1018.8hPa West 5mph /  8km/h 8mph /  12.9km/h 87% 0.00in /  0mm 114 W/m2
07:39 41.6 °F /  5.3 °C 37.8 °F /  3.2 °C 30.09in /  1018.8hPa West 3mph /  4.8km/h 7mph /  11.3km/h 86.4% 0.00in /  0mm 160 W/m2
07:44 42.2 °F /  5.7 °C 38.2 °F /  3.4 °C 30.09in /  1018.8hPa West 4.1mph /  6.6km/h 8mph /  12.9km/h 85.8% 0.00in /  0mm 183 W/m2
07:48 42.6 °F /  5.9 °C 38.5 °F /  3.6 °C 30.08in /  1018.5hPa WSW 4mph /  6.4km/h 8mph /  12.9km/h 85% 0.00in /  0mm 183 W/m2
07:54 42.8 °F /  6 °C 38.4 °F /  3.6 °C 30.09in /  1018.8hPa WNW 4.2mph /  6.8km/h 8mph /  12.9km/h 84.2% 0.00in /  0mm 141 W/m2
07:59 43 °F /  6.1 °C 38.1 °F /  3.4 °C 30.09in /  1018.8hPa WNW 5.9mph /  9.5km/h 15mph /  24.1km/h 83% 0.00in /  0mm 165 W/m2
08:04 43.2 °F /  6.2 °C 38.1 °F /  3.4 °C 30.09in /  1018.8hPa West 5.1mph /  8.2km/h 14mph /  22.5km/h 82% 0.00in /  0mm 169 W/m2
08:09 43.3 °F /  6.3 °C 37.8 °F /  3.2 °C 30.09in /  1018.8hPa NW 6.6mph /  10.6km/h 11mph /  17.7km/h 80.4% 0.00in /  0mm 185 W/m2
08:14 43.5 °F /  6.4 °C 37.5 °F /  3.1 °C 30.09in /  1018.8hPa NW 7.8mph /  12.6km/h 14mph /  22.5km/h 79.2% 0.00in /  0mm 199 W/m2
08:19 43.8 °F /  6.6 °C 37.3 °F /  2.9 °C 30.09in /  1018.8hPa West 8.8mph /  14.2km/h 16mph /  25.7km/h 78% 0.00in /  0mm 221 W/m2
08:24 44.1 °F /  6.7 °C 37.4 °F /  3 °C 30.09in /  1018.8hPa West 4.6mph /  7.4km/h 12mph /  19.3km/h 77% 0.00in /  0mm 322 W/m2
08:29 44.2 °F /  6.8 °C 37.4 °F /  3 °C 30.09in /  1018.8hPa WNW 6mph /  9.7km/h 14mph /  22.5km/h 76.6% 0.00in /  0mm 202 W/m2
08:34 44.2 °F /  6.8 °C 37.2 °F /  2.9 °C 30.09in /  1018.8hPa WNW 7.3mph /  11.7km/h 14mph /  22.5km/h 76% 0.00in /  0mm 190 W/m2
08:39 44.2 °F /  6.8 °C 36.9 °F /  2.7 °C 30.09in /  1018.8hPa WNW 8.6mph /  13.8km/h 15mph /  24.1km/h 75% 0.00in /  0mm 186 W/m2
08:44 44.2 °F /  6.8 °C 36.6 °F /  2.6 °C 30.09in /  1018.8hPa NW 6.2mph /  10km/h 11mph /  17.7km/h 74.4% 0.00in /  0mm 183 W/m2
08:49 44.2 °F /  6.8 °C 36.5 °F /  2.5 °C 30.09in /  1018.8hPa WNW 5.9mph /  9.5km/h 11mph /  17.7km/h 74% 0.00in /  0mm 174 W/m2
08:54 44.2 °F /  6.8 °C 36.4 °F /  2.4 °C 30.09in /  1018.8hPa WNW 7mph /  11.3km/h 17mph /  27.4km/h 73.8% 0.00in /  0mm 262 W/m2
08:59 44.2 °F /  6.8 °C 36.1 °F /  2.3 °C 30.09in /  1018.8hPa WNW 6.8mph /  10.9km/h 16mph /  25.7km/h 73% 0.00in /  0mm 290 W/m2
09:04 44.7 °F /  7.1 °C 36.6 °F /  2.6 °C 30.09in /  1018.8hPa NW 6.4mph /  10.3km/h 14mph /  22.5km/h 73% 0.00in /  0mm 524 W/m2
09:09 45.3 °F /  7.4 °C 37.1 °F /  2.8 °C 30.08in /  1018.5hPa WNW 6mph /  9.7km/h 12mph /  19.3km/h 72.8% 0.00in /  0mm 589 W/m2
09:14 45.7 °F /  7.6 °C 37.2 °F /  2.9 °C 30.08in /  1018.5hPa WNW 6.4mph /  10.3km/h 15mph /  24.1km/h 72% 0.00in /  0mm 417 W/m2
09:19 45.9 °F /  7.7 °C 37.3 °F /  2.9 °C 30.09in /  1018.8hPa NW 7mph /  11.3km/h 15mph /  24.1km/h 71.8% 0.00in /  0mm 345 W/m2
09:24 45.8 °F /  7.7 °C 37 °F /  2.8 °C 30.09in /  1018.8hPa WNW 4.7mph /  7.6km/h 13mph /  20.9km/h 71% 0.00in /  0mm 295 W/m2
09:29 45.8 °F /  7.7 °C 36.9 °F /  2.7 °C 30.08in /  1018.5hPa WNW 6.6mph /  10.6km/h 13mph /  20.9km/h 71% 0.00in /  0mm 237 W/m2
09:34 45.7 °F /  7.6 °C 37.2 °F /  2.9 °C 30.09in /  1018.8hPa West 7mph /  11.3km/h 13mph /  20.9km/h 72% 0.00in /  0mm 214 W/m2
09:39 45.5 °F /  7.5 °C 36.8 °F /  2.7 °C 30.08in /  1018.5hPa West 5.2mph /  8.4km/h 15mph /  24.1km/h 71.6% 0.00in /  0mm 195 W/m2
09:44 45.6 °F /  7.6 °C 37 °F /  2.8 °C 30.08in /  1018.5hPa West 5.4mph /  8.7km/h 13mph /  20.9km/h 71.8% 0.00in /  0mm 236 W/m2
09:49 45.3 °F /  7.4 °C 36.5 °F /  2.5 °C 30.08in /  1018.5hPa WNW 7.2mph /  11.6km/h 13mph /  20.9km/h 71% 0.00in /  0mm 287 W/m2
09:54 45.5 °F /  7.5 °C 36.7 °F /  2.6 °C 30.08in /  1018.5hPa WNW 4.4mph /  7.1km/h 11mph /  17.7km/h 71% 0.00in /  0mm 366 W/m2
09:59 45.7 °F /  7.6 °C 36.9 °F /  2.7 °C 30.08in /  1018.5hPa WNW 5.8mph /  9.3km/h 15mph /  24.1km/h 71% 0.00in /  0mm 355 W/m2
10:04 45.8 °F /  7.7 °C 36.6 °F /  2.6 °C 30.08in /  1018.5hPa WNW 10.2mph /  16.4km/h 17mph /  27.4km/h 70% 0.00in /  0mm 394 W/m2
10:09 46.1 °F /  7.8 °C 36.9 °F /  2.7 °C 30.08in /  1018.5hPa WNW 6.6mph /  10.6km/h 14mph /  22.5km/h 70% 0.00in /  0mm 652 W/m2
10:14 46 °F /  7.8 °C 36.5 °F /  2.5 °C 30.08in /  1018.5hPa WNW 7.1mph /  11.4km/h 16mph /  25.7km/h 69% 0.00in /  0mm 359 W/m2
10:19 46.2 °F /  7.9 °C 36.7 °F /  2.6 °C 30.07in /  1018.2hPa WNW 8.8mph /  14.2km/h 18mph /  29km/h 69% 0.00in /  0mm 519 W/m2
10:24 46.1 °F /  7.8 °C 36.6 °F /  2.6 °C 30.08in /  1018.5hPa WNW 9.4mph /  15.1km/h 19mph /  30.6km/h 69% 0.00in /  0mm 304 W/m2
10:29 46.3 °F /  7.9 °C 36.7 °F /  2.6 °C 30.08in /  1018.5hPa NW 5mph /  8km/h 12mph /  19.3km/h 68.6% 0.00in /  0mm 378 W/m2
10:34 46.6 °F /  8.1 °C 36.8 °F /  2.7 °C 30.08in /  1018.5hPa WNW 4mph /  6.4km/h 11mph /  17.7km/h 68.6% 0.00in /  0mm 378 W/m2
10:39 46.8 °F /  8.2 °C 36.9 °F /  2.7 °C 30.08in /  1018.5hPa WNW 8.8mph /  14.2km/h 13mph /  20.9km/h 68.4% 0.00in /  0mm 404 W/m2
10:44 47 °F /  8.3 °C 36.9 °F /  2.7 °C 30.08in /  1018.5hPa WNW 8mph /  12.9km/h 12mph /  19.3km/h 68% 0.00in /  0mm 844 W/m2
10:49 47.8 °F /  8.8 °C 37.6 °F /  3.1 °C 30.08in /  1018.5hPa WNW 5.6mph /  9km/h 16mph /  25.7km/h 67.6% 0.00in /  0mm 788 W/m2
10:54 48.2 °F /  9 °C 37.4 °F /  3 °C 30.07in /  1018.2hPa West 7.9mph /  12.7km/h 14mph /  22.5km/h 66.2% 0.00in /  0mm 926 W/m2
10:59 47.8 °F /  8.8 °C 36.9 °F /  2.7 °C 30.07in /  1018.2hPa WNW 7.6mph /  12.2km/h 15mph /  24.1km/h 65.8% 0.00in /  0mm 390 W/m2
11:04 47.7 °F /  8.7 °C 36.6 °F /  2.6 °C 30.07in /  1018.2hPa WNW 6.2mph /  10km/h 15mph /  24.1km/h 65.2% 0.00in /  0mm 489 W/m2
11:09 47.1 °F /  8.4 °C 36.5 °F /  2.5 °C 30.07in /  1018.2hPa West 8.4mph /  13.5km/h 15mph /  24.1km/h 66.6% 0.00in /  0mm 366 W/m2
11:14 46.9 °F /  8.3 °C 36.9 °F /  2.7 °C 30.07in /  1018.2hPa WNW 7.6mph /  12.2km/h 14mph /  22.5km/h 68% 0.00in /  0mm 246 W/m2
11:19 46.9 °F /  8.3 °C 37.1 °F /  2.8 °C 30.07in /  1018.2hPa WNW 7.2mph /  11.6km/h 12mph /  19.3km/h 68.6% 0.00in /  0mm 343 W/m2
11:24 46.9 °F /  8.3 °C 37.2 °F /  2.9 °C 30.07in /  1018.2hPa WNW 5.6mph /  9km/h 14mph /  22.5km/h 69% 0.00in /  0mm 301 W/m2
11:29 47.1 °F /  8.4 °C 37.4 °F /  3 °C 30.07in /  1018.2hPa NW 6.8mph /  10.9km/h 13mph /  20.9km/h 69% 0.00in /  0mm 232 W/m2
11:34 47.1 °F /  8.4 °C 37.1 °F /  2.8 °C 30.07in /  1018.2hPa NW 7mph /  11.3km/h 13mph /  20.9km/h 68.2% 0.00in /  0mm 243 W/m2
11:39 47.1 °F /  8.4 °C 36.8 °F /  2.7 °C 30.06in /  1017.8hPa NNW 5.8mph /  9.3km/h 10mph /  16.1km/h 67.4% 0.00in /  0mm 338 W/m2
11:44 47.5 °F /  8.6 °C 37 °F /  2.8 °C 30.06in /  1017.8hPa NNW 6.7mph /  10.8km/h 14mph /  22.5km/h 67% 0.00in /  0mm 302 W/m2
11:49 47.7 °F /  8.7 °C 37.2 °F /  2.9 °C 30.06in /  1017.8hPa WNW 5.3mph /  8.5km/h 9mph /  14.5km/h 67% 0.00in /  0mm 353 W/m2
11:54 48 °F /  8.9 °C 37.3 °F /  2.9 °C 30.06in /  1017.8hPa NW 5.2mph /  8.4km/h 12mph /  19.3km/h 66.4% 0.00in /  0mm 413 W/m2
11:59 47.9 °F /  8.8 °C 36.9 °F /  2.7 °C 30.06in /  1017.8hPa NW 7mph /  11.3km/h 17mph /  27.4km/h 65.4% 0.00in /  0mm 425 W/m2
12:04 47.9 °F /  8.8 °C 36.8 °F /  2.7 °C 30.06in /  1017.8hPa NW 5.2mph /  8.4km/h 13mph /  20.9km/h 65% 0.00in /  0mm 796 W/m2
12:09 48.7 °F /  9.3 °C 37.3 °F /  2.9 °C 30.06in /  1017.8hPa NNW 8.1mph /  13km/h 14mph /  22.5km/h 64.6% 0.00in /  0mm 796 W/m2
12:14 48.8 °F /  9.3 °C 37.1 °F /  2.8 °C 30.06in /  1017.8hPa WNW 9.2mph /  14.8km/h 14mph /  22.5km/h 64% 0.00in /  0mm 304 W/m2
12:19 48.6 °F /  9.2 °C 37 °F /  2.8 °C 30.06in /  1017.8hPa WNW 8mph /  12.9km/h 12mph /  19.3km/h 64.2% 0.00in /  0mm 881 W/m2
12:24 49 °F /  9.4 °C 36.9 °F /  2.7 °C 30.06in /  1017.8hPa WNW 5.7mph /  9.2km/h 14mph /  22.5km/h 62.8% 0.00in /  0mm 914 W/m2
12:29 49.5 °F /  9.7 °C 36.8 °F /  2.7 °C 30.06in /  1017.8hPa NW 7.2mph /  11.6km/h 13mph /  20.9km/h 61.6% 0.00in /  0mm 327 W/m2
12:34 49.5 °F /  9.7 °C 36 °F /  2.2 °C 30.06in /  1017.8hPa WNW 10.5mph /  16.9km/h 18mph /  29km/h 59.5% 0.00in /  0mm 796 W/m2
12:39 49.6 °F /  9.8 °C 35.5 °F /  1.9 °C 30.05in /  1017.5hPa NW 7.4mph /  11.9km/h 18mph /  29km/h 58.2% 0.00in /  0mm 758 W/m2
12:44 50.2 °F /  10.1 °C 36.3 °F /  2.4 °C 30.05in /  1017.5hPa NW 10.4mph /  16.7km/h 16mph /  25.7km/h 59% 0.00in /  0mm 912 W/m2
12:49 50.3 °F /  10.2 °C 36.4 °F /  2.4 °C 30.05in /  1017.5hPa WNW 4.4mph /  7.1km/h 14mph /  22.5km/h 59% 0.00in /  0mm 352 W/m2
12:54 50.2 °F /  10.1 °C 36.7 °F /  2.6 °C 30.05in /  1017.5hPa NW 5.3mph /  8.5km/h 10mph /  16.1km/h 59.8% 0.00in /  0mm 255 W/m2
12:59 49.8 °F /  9.9 °C 36.6 °F /  2.6 °C 30.05in /  1017.5hPa NW 5.1mph /  8.2km/h 11mph /  17.7km/h 60.2% 0.00in /  0mm 264 W/m2
13:04 49.7 °F /  9.8 °C 36.4 °F /  2.4 °C 30.05in /  1017.5hPa NW 3.3mph /  5.3km/h 11mph /  17.7km/h 60% 0.00in /  0mm 272 W/m2
13:09 49.9 °F /  9.9 °C 36.9 °F /  2.7 °C 30.05in /  1017.5hPa NW 7.2mph /  11.6km/h 12mph /  19.3km/h 60.8% 0.00in /  0mm 302 W/m2
13:14 49.6 °F /  9.8 °C 37.1 °F /  2.8 °C 30.05in /  1017.5hPa WNW 5mph /  8km/h 10mph /  16.1km/h 61.8% 0.00in /  0mm 216 W/m2
13:19 49.8 °F /  9.9 °C 37.4 °F /  3 °C 30.05in /  1017.5hPa WNW 4.6mph /  7.4km/h 9mph /  14.5km/h 62% 0.00in /  0mm 362 W/m2
13:24 49.7 °F /  9.8 °C 37.3 °F /  2.9 °C 30.05in /  1017.5hPa West 4.3mph /  6.9km/h 12mph /  19.3km/h 62% 0.00in /  0mm 362 W/m2
13:29 49.4 °F /  9.7 °C 37.2 °F /  2.9 °C 30.05in /  1017.5hPa West 9.2mph /  14.8km/h 15mph /  24.1km/h 62.6% 0.00in /  0mm 207 W/m2
13:34 49.2 °F /  9.6 °C 37.1 °F /  2.8 °C 30.05in /  1017.5hPa West 7.4mph /  11.9km/h 12mph /  19.3km/h 63% 0.00in /  0mm 178 W/m2
13:39 49.3 °F /  9.6 °C 37.6 °F /  3.1 °C 30.05in /  1017.5hPa WNW 6mph /  9.7km/h 11mph /  17.7km/h 64% 0.00in /  0mm 332 W/m2
13:44 49.5 °F /  9.7 °C 37.6 °F /  3.1 °C 30.06in /  1017.8hPa West 7.2mph /  11.6km/h 13mph /  20.9km/h 63.4% 0.00in /  0mm 403 W/m2
13:49 50.1 °F /  10.1 °C 38.1 °F /  3.4 °C 30.06in /  1017.8hPa NW 5mph /  8km/h 11mph /  17.7km/h 63.2% 0.00in /  0mm 339 W/m2
13:54 50.1 °F /  10.1 °C 38 °F /  3.3 °C 30.05in /  1017.5hPa NW 6.8mph /  10.9km/h 11mph /  17.7km/h 63% 0.00in /  0mm 967 W/m2
13:59 51.1 °F /  10.6 °C 38.2 °F /  3.4 °C 30.05in /  1017.5hPa WNW 7.6mph /  12.2km/h 14mph /  22.5km/h 61.2% 0.00in /  0mm 1005 W/m2
14:04 51 °F /  10.6 °C 37.6 °F /  3.1 °C 30.05in /  1017.5hPa WNW 7mph /  11.3km/h 14mph /  22.5km/h 59.8% 0.00in /  0mm 292 W/m2
14:09 50.3 °F /  10.2 °C 37.1 °F /  2.8 °C 30.05in /  1017.5hPa NW 6.1mph /  9.8km/h 14mph /  22.5km/h 60.4% 0.00in /  0mm 206 W/m2
14:14 50.4 °F /  10.2 °C 37.5 °F /  3.1 °C 30.05in /  1017.5hPa NW 6.4mph /  10.3km/h 11mph /  17.7km/h 61.4% 0.00in /  0mm 251 W/m2
14:19 50.4 °F /  10.2 °C 37.1 °F /  2.8 °C 30.05in /  1017.5hPa North 4.7mph /  7.6km/h 13mph /  20.9km/h 60.2% 0.00in /  0mm 313 W/m2
14:24 50.3 °F /  10.2 °C 37 °F /  2.8 °C 30.05in /  1017.5hPa NW 8.2mph /  13.2km/h 14mph /  22.5km/h 60.2% 0.00in /  0mm 320 W/m2
14:29 50.4 °F /  10.2 °C 36.9 °F /  2.7 °C 30.05in /  1017.5hPa NW 8mph /  12.9km/h 15mph /  24.1km/h 59.8% 0.00in /  0mm 315 W/m2
14:34 50.2 °F /  10.1 °C 36.8 °F /  2.7 °C 30.05in /  1017.5hPa NW 6.6mph /  10.6km/h 15mph /  24.1km/h 59.8% 0.00in /  0mm 239 W/m2
14:39 49.8 °F /  9.9 °C 36.9 °F /  2.7 °C 30.05in /  1017.5hPa WNW 8mph /  12.9km/h 17mph /  27.4km/h 60.8% 0.00in /  0mm 209 W/m2
14:44 49.3 °F /  9.6 °C 38 °F /  3.3 °C 30.05in /  1017.5hPa West 9.8mph /  15.8km/h 14mph /  22.5km/h 65% 0.00in /  0mm 304 W/m2
14:49 48.9 °F /  9.4 °C 38.7 °F /  3.7 °C 30.05in /  1017.5hPa West 7.2mph /  11.6km/h 16mph /  25.7km/h 67.6% 0.00in /  0mm 496 W/m2
14:54 48.7 °F /  9.3 °C 38.9 °F /  3.8 °C 30.05in /  1017.5hPa WNW 6.4mph /  10.3km/h 16mph /  25.7km/h 68.6% 0.00in /  0mm 628 W/m2
14:59 49 °F /  9.4 °C 39.3 °F /  4.1 °C 30.05in /  1017.5hPa West 7mph /  11.3km/h 13mph /  20.9km/h 69% 0.00in /  0mm 366 W/m2
15:04 49.3 °F /  9.6 °C 39.2 °F /  4 °C 30.05in /  1017.5hPa West 7.6mph /  12.2km/h 15mph /  24.1km/h 68.2% 0.00in /  0mm 306 W/m2
15:09 49.2 °F /  9.6 °C 39.1 °F /  3.9 °C 30.05in /  1017.5hPa West 7mph /  11.3km/h 13mph /  20.9km/h 68% 0.00in /  0mm 213 W/m2
15:14 49 °F /  9.4 °C 38.9 °F /  3.8 °C 30.05in /  1017.5hPa WNW 8.4mph /  13.5km/h 14mph /  22.5km/h 68% 0.00in /  0mm 188 W/m2
15:19 49.1 °F /  9.5 °C 39.1 °F /  3.9 °C 30.05in /  1017.5hPa WNW 6.8mph /  10.9km/h 13mph /  20.9km/h 68% 0.00in /  0mm 204 W/m2
15:24 48.8 °F /  9.3 °C 38.6 °F /  3.7 °C 30.05in /  1017.5hPa WNW 8mph /  12.9km/h 14mph /  22.5km/h 67.6% 0.00in /  0mm 216 W/m2
15:29 48.4 °F /  9.1 °C 38.3 °F /  3.5 °C 30.05in /  1017.5hPa WNW 8.6mph /  13.8km/h 15mph /  24.1km/h 68% 0.00in /  0mm 250 W/m2
15:34 48.5 °F /  9.2 °C 38.2 °F /  3.4 °C 30.04in /  1017.2hPa NW 9.6mph /  15.4km/h 12mph /  19.3km/h 67.6% 0.00in /  0mm 301 W/m2
15:39 48.8 °F /  9.3 °C 38.3 °F /  3.5 °C 30.04in /  1017.2hPa NW 6.6mph /  10.6km/h 12mph /  19.3km/h 67% 0.00in /  0mm 357 W/m2
15:44 49.2 °F /  9.6 °C 38.5 °F /  3.6 °C 30.04in /  1017.2hPa NW 6.5mph /  10.5km/h 13mph /  20.9km/h 66.2% 0.00in /  0mm 360 W/m2
15:49 50.1 °F /  10.1 °C 38.7 °F /  3.7 °C 30.04in /  1017.2hPa NW 6.2mph /  10km/h 14mph /  22.5km/h 64.8% 0.00in /  0mm 700 W/m2
15:54 50.5 °F /  10.3 °C 38.6 °F /  3.7 °C 30.04in /  1017.2hPa WNW 7.3mph /  11.7km/h 12mph /  19.3km/h 63.2% 0.00in /  0mm 700 W/m2
15:59 50.4 °F /  10.2 °C 38.1 °F /  3.4 °C 30.04in /  1017.2hPa WNW 6.6mph /  10.6km/h 12mph /  19.3km/h 62.6% 0.00in /  0mm 209 W/m2
16:04 50 °F /  10 °C 37.9 °F /  3.3 °C 30.04in /  1017.2hPa WNW 5.5mph /  8.9km/h 14mph /  22.5km/h 62.8% 0.00in /  0mm 218 W/m2
16:09 49.6 °F /  9.8 °C 37.6 °F /  3.1 °C 30.04in /  1017.2hPa NW 6.2mph /  10km/h 15mph /  24.1km/h 63% 0.00in /  0mm 163 W/m2
16:14 49.5 °F /  9.7 °C 37.8 °F /  3.2 °C 30.04in /  1017.2hPa WNW 5.6mph /  9km/h 11mph /  17.7km/h 64% 0.00in /  0mm 176 W/m2
16:19 50.1 °F /  10.1 °C 38.6 °F /  3.7 °C 30.03in /  1016.8hPa NW 7.6mph /  12.2km/h 16mph /  25.7km/h 64.4% 0.00in /  0mm 599 W/m2
16:24 50.1 °F /  10.1 °C 38.4 °F /  3.6 °C 30.04in /  1017.2hPa WNW 8.2mph /  13.2km/h 16mph /  25.7km/h 64% 0.00in /  0mm 113 W/m2
16:29 50 °F /  10 °C 38.4 °F /  3.6 °C 30.03in /  1016.8hPa WNW 8mph /  12.9km/h 10mph /  16.1km/h 64.4% 0.00in /  0mm 615 W/m2
16:34 50.3 °F /  10.2 °C 38.7 °F /  3.7 °C 30.03in /  1016.8hPa West 6.4mph /  10.3km/h 13mph /  20.9km/h 64.4% 0.00in /  0mm 378 W/m2
16:39 50 °F /  10 °C 38.6 °F /  3.7 °C 30.03in /  1016.8hPa WNW 6.2mph /  10km/h 13mph /  20.9km/h 64.8% 0.00in /  0mm 144 W/m2
16:44 49.4 °F /  9.7 °C 38.2 °F /  3.4 °C 30.03in /  1016.8hPa West 5.5mph /  8.9km/h 13mph /  20.9km/h 65.2% 0.00in /  0mm 90 W/m2
16:49 49.3 °F /  9.6 °C 38.6 °F /  3.7 °C 30.03in /  1016.8hPa WNW 3.7mph /  6km/h 9mph /  14.5km/h 66.4% 0.00in /  0mm 86 W/m2
16:54 49 °F /  9.4 °C 38.7 °F /  3.7 °C 30.03in /  1016.8hPa NW 6.2mph /  10km/h 10mph /  16.1km/h 67.2% 0.00in /  0mm 128 W/m2
16:59 48.8 °F /  9.3 °C 38.8 °F /  3.8 °C 30.03in /  1016.8hPa WNW 8mph /  12.9km/h 14mph /  22.5km/h 68.2% 0.00in /  0mm 127 W/m2
17:04 48.5 °F /  9.2 °C 38.9 °F /  3.8 °C 30.04in /  1017.2hPa NW 4.9mph /  7.9km/h 11mph /  17.7km/h 69.6% 0.00in /  0mm 100 W/m2
17:09 48.2 °F /  9 °C 39 °F /  3.9 °C 30.04in /  1017.2hPa NNW 4.5mph /  7.2km/h 10mph /  16.1km/h 70.6% 0.00in /  0mm 60 W/m2
17:14 47.6 °F /  8.7 °C 38.7 °F /  3.7 °C 30.04in /  1017.2hPa WNW 5.7mph /  9.2km/h 12mph /  19.3km/h 71.2% 0.00in /  0mm 60 W/m2
17:19 47.3 °F /  8.5 °C 38.7 °F /  3.7 °C 30.04in /  1017.2hPa NW 5.7mph /  9.2km/h 11mph /  17.7km/h 72.4% 0.00in /  0mm 69 W/m2
17:24 46.9 °F /  8.3 °C 38.9 °F /  3.8 °C 30.04in /  1017.2hPa NNW 4.4mph /  7.1km/h 9mph /  14.5km/h 73.6% 0.00in /  0mm 97 W/m2
17:29 46.8 °F /  8.2 °C 38.9 °F /  3.8 °C 30.03in /  1016.8hPa NW 3.7mph /  6km/h 8mph /  12.9km/h 74% 0.00in /  0mm 158 W/m2
17:34 47 °F /  8.3 °C 39.1 °F /  3.9 °C 30.03in /  1016.8hPa WNW 2.9mph /  4.7km/h 5mph /  8km/h 74% 0.00in /  0mm 206 W/m2
17:39 47.1 °F /  8.4 °C 39.2 °F /  4 °C 30.03in /  1016.8hPa WNW 2.9mph /  4.7km/h 8mph /  12.9km/h 74% 0.00in /  0mm 206 W/m2
17:44 47.2 °F /  8.4 °C 39.3 °F /  4.1 °C 30.03in /  1016.8hPa WNW 2.5mph /  4km/h 3mph /  4.8km/h 73.8% 0.00in /  0mm 206 W/m2
17:49 48 °F /  8.9 °C 39.7 °F /  4.3 °C 30.03in /  1016.8hPa WNW 4.9mph /  7.9km/h 8mph /  12.9km/h 73% 0.00in /  0mm 218 W/m2
17:54 48.2 °F /  9 °C 39.9 °F /  4.4 °C 30.04in /  1017.2hPa WNW 3.7mph /  6km/h 7mph /  11.3km/h 73% 0.00in /  0mm 237 W/m2
17:59 48.4 °F /  9.1 °C 39.7 °F /  4.3 °C 30.04in /  1017.2hPa WNW 4.3mph /  6.9km/h 9mph /  14.5km/h 72% 0.00in /  0mm 135 W/m2
18:04 48.3 °F /  9.1 °C 39.6 °F /  4.2 °C 30.04in /  1017.2hPa WNW 4.1mph /  6.6km/h 7mph /  11.3km/h 72% 0.00in /  0mm 76 W/m2
18:09 48.4 °F /  9.1 °C 39.7 °F /  4.3 °C 30.04in /  1017.2hPa WNW 3.6mph /  5.8km/h 10mph /  16.1km/h 72% 0.00in /  0mm 86 W/m2
18:14 48.3 °F /  9.1 °C 39.6 °F /  4.2 °C 30.04in /  1017.2hPa WNW 6.6mph /  10.6km/h 12mph /  19.3km/h 72% 0.00in /  0mm 116 W/m2
18:19 48.1 °F /  8.9 °C 39.5 °F /  4.2 °C 30.04in /  1017.2hPa West 4mph /  6.4km/h 9mph /  14.5km/h 72% 0.00in /  0mm 116 W/m2
18:24 47.9 °F /  8.8 °C 39 °F /  3.9 °C 30.04in /  1017.2hPa WNW 4.3mph /  6.9km/h 10mph /  16.1km/h 71.2% 0.00in /  0mm 141 W/m2
18:29 47.9 °F /  8.8 °C 38.9 °F /  3.8 °C 30.04in /  1017.2hPa WNW 2.6mph /  4.2km/h 8mph /  12.9km/h 71% 0.00in /  0mm 146 W/m2
18:34 48.1 °F /  8.9 °C 39.1 °F /  3.9 °C 30.04in /  1017.2hPa WNW 3.9mph /  6.3km/h 7mph /  11.3km/h 71% 0.00in /  0mm 142 W/m2
18:39 48.2 °F /  9 °C 38.8 °F /  3.8 °C 30.04in /  1017.2hPa WNW 3.8mph /  6.1km/h 10mph /  16.1km/h 70% 0.00in /  0mm 121 W/m2
18:44 48.3 °F /  9.1 °C 38.9 °F /  3.8 °C 30.04in /  1017.2hPa WNW 4.5mph /  7.2km/h 8mph /  12.9km/h 70% 0.00in /  0mm 113 W/m2
18:49 48.3 °F /  9.1 °C 38.9 °F /  3.8 °C 30.04in /  1017.2hPa NW 4.5mph /  7.2km/h 9mph /  14.5km/h 70% 0.00in /  0mm 113 W/m2
18:54 48.4 °F /  9.1 °C 39 °F /  3.9 °C 30.04in /  1017.2hPa NW 3.1mph /  5km/h 7mph /  11.3km/h 70% 0.00in /  0mm 104 W/m2
18:59 48.4 °F /  9.1 °C 39 °F /  3.9 °C 30.04in /  1017.2hPa WNW 4.8mph /  7.7km/h 9mph /  14.5km/h 70% 0.00in /  0mm 100 W/m2
19:04 48.4 °F /  9.1 °C 39 °F /  3.9 °C 30.04in /  1017.2hPa WNW 4.1mph /  6.6km/h 9mph /  14.5km/h 70% 0.00in /  0mm 69 W/m2
19:09 48.4 °F /  9.1 °C 39.1 °F /  3.9 °C 30.04in /  1017.2hPa NW 6.2mph /  10km/h 11mph /  17.7km/h 70.2% 0.00in /  0mm 70 W/m2
19:14 48.3 °F /  9.1 °C 39.2 °F /  4 °C 30.04in /  1017.2hPa NW 6.6mph /  10.6km/h 11mph /  17.7km/h 70.8% 0.00in /  0mm 69 W/m2
19:19 48.4 °F /  9.1 °C 39.4 °F /  4.1 °C 30.04in /  1017.2hPa WNW 4.4mph /  7.1km/h 10mph /  16.1km/h 71% 0.00in /  0mm 58 W/m2
19:24 48.2 °F /  9 °C 39 °F /  3.9 °C 30.04in /  1017.2hPa NNW 6.4mph /  10.3km/h 14mph /  22.5km/h 70.4% 0.00in /  0mm 44 W/m2
19:29 48 °F /  8.9 °C 38.7 °F /  3.7 °C 30.04in /  1017.2hPa NNW 4.1mph /  6.6km/h 9mph /  14.5km/h 70% 0.00in /  0mm 39 W/m2
19:34 48 °F /  8.9 °C 38.7 °F /  3.7 °C 30.04in /  1017.2hPa WNW 3.2mph /  5.1km/h 8mph /  12.9km/h 70% 0.00in /  0mm 25 W/m2
19:39 47.8 °F /  8.8 °C 38.3 °F /  3.5 °C 30.04in /  1017.2hPa NNW 6.2mph /  10km/h 11mph /  17.7km/h 69.6% 0.00in /  0mm 18 W/m2
19:44 47.7 °F /  8.7 °C 38.2 °F /  3.4 °C 30.05in /  1017.5hPa NNW 3.9mph /  6.3km/h 7mph /  11.3km/h 69.8% 0.00in /  0mm 12 W/m2
19:49 47.6 °F /  8.7 °C 38.2 °F /  3.4 °C 30.05in /  1017.5hPa WNW 3.2mph /  5.1km/h 7mph /  11.3km/h 70% 0.00in /  0mm 9 W/m2
19:54 47.3 °F /  8.5 °C 37.9 °F /  3.3 °C 30.05in /  1017.5hPa NW 4.4mph /  7.1km/h 8mph /  12.9km/h 70% 0.00in /  0mm 9 W/m2
19:59 47.1 °F /  8.4 °C 38.1 °F /  3.4 °C 30.05in /  1017.5hPa NW 4.3mph /  6.9km/h 8mph /  12.9km/h 71% 0.00in /  0mm 7 W/m2
20:04 47.1 °F /  8.4 °C 38.1 °F /  3.4 °C 30.05in /  1017.5hPa NW 4.8mph /  7.7km/h 7mph /  11.3km/h 71% 0.00in /  0mm 5 W/m2
20:09 46.9 °F /  8.3 °C 38.3 °F /  3.5 °C 30.05in /  1017.5hPa NW 3.2mph /  5.1km/h 6mph /  9.7km/h 71.8% 0.00in /  0mm 0 W/m2
20:14 46.8 °F /  8.2 °C 38.3 °F /  3.5 °C 30.05in /  1017.5hPa NW 3.7mph /  6km/h 6mph /  9.7km/h 72.2% 0.00in /  0mm 0 W/m2
20:19 46.6 °F /  8.1 °C 38.4 °F /  3.6 °C 30.06in /  1017.8hPa NNW 2.7mph /  4.3km/h 5mph /  8km/h 72.8% 0.00in /  0mm 0 W/m2
20:24 46.3 °F /  7.9 °C 38.2 °F /  3.4 °C 30.06in /  1017.8hPa NNW 2.7mph /  4.3km/h 5mph /  8km/h 73% 0.00in /  0mm 0 W/m2
20:29 46 °F /  7.8 °C 38.3 °F /  3.5 °C 30.06in /  1017.8hPa NW 2.1mph /  3.4km/h 4mph /  6.4km/h 73.8% 0.00in /  0mm 0 W/m2
20:34 45.9 °F /  7.7 °C 38.1 °F /  3.4 °C 30.06in /  1017.8hPa NW 2.4mph /  3.9km/h 4mph /  6.4km/h 74% 0.00in /  0mm 0 W/m2
20:39 45.7 °F /  7.6 °C 38.2 °F /  3.4 °C 30.06in /  1017.8hPa NW 2.3mph /  3.7km/h 6mph /  9.7km/h 74.8% 0.00in /  0mm 0 W/m2
20:44 45.4 °F /  7.4 °C 38 °F /  3.3 °C 30.07in /  1018.2hPa WNW 2.6mph /  4.2km/h 6mph /  9.7km/h 75% 0.00in /  0mm 0 W/m2
20:49 45.3 °F /  7.4 °C 37.9 °F /  3.3 °C 30.07in /  1018.2hPa NW 2.6mph /  4.2km/h 5mph /  8km/h 75% 0.00in /  0mm 0 W/m2
20:54 45.1 °F /  7.3 °C 37.8 °F /  3.2 °C 30.07in /  1018.2hPa NW 2mph /  3.2km/h 4mph /  6.4km/h 75% 0.00in /  0mm 0 W/m2
20:59 45.1 °F /  7.3 °C 37.9 °F /  3.3 °C 30.07in /  1018.2hPa NW 1.6mph /  2.6km/h 5mph /  8km/h 76% 0.00in /  0mm 0 W/m2
21:04 45 °F /  7.2 °C 37.9 °F /  3.3 °C 30.08in /  1018.5hPa NW 2.2mph /  3.5km/h 4mph /  6.4km/h 76% 0.00in /  0mm 0 W/m2
21:09 44.9 °F /  7.2 °C 37.9 °F /  3.3 °C 30.08in /  1018.5hPa NW 2.2mph /  3.5km/h 4mph /  6.4km/h 76% 0.00in /  0mm 0 W/m2
21:14 44.8 °F /  7.1 °C 37.8 °F /  3.2 °C 30.08in /  1018.5hPa NW 0.7mph /  1.1km/h 4mph /  6.4km/h 76% 0.00in /  0mm 0 W/m2
21:19 44.5 °F /  6.9 °C 37.5 °F /  3.1 °C 30.09in /  1018.8hPa NW 1mph /  1.6km/h 3mph /  4.8km/h 76% 0.00in /  0mm 0 W/m2
21:24 44.4 °F /  6.9 °C 37.4 °F /  3 °C 30.09in /  1018.8hPa NW 1.2mph /  1.9km/h 4mph /  6.4km/h 76.2% 0.00in /  0mm 0 W/m2
21:29 44.2 °F /  6.8 °C 37.6 °F /  3.1 °C 30.09in /  1018.8hPa NW 2.4mph /  3.9km/h 4mph /  6.4km/h 77% 0.00in /  0mm 0 W/m2
21:34 44.2 °F /  6.8 °C 37.6 °F /  3.1 °C 30.09in /  1018.8hPa NW 1.7mph /  2.7km/h 4mph /  6.4km/h 77% 0.00in /  0mm 0 W/m2
21:39 44.1 °F /  6.7 °C 37.4 °F /  3 °C 30.09in /  1018.8hPa NW 2.4mph /  3.9km/h 5mph /  8km/h 77% 0.00in /  0mm 0 W/m2
21:44 44.1 °F /  6.7 °C 37.4 °F /  3 °C 30.10in /  1019.2hPa NW 2.8mph /  4.5km/h 6mph /  9.7km/h 77% 0.00in /  0mm 0 W/m2
21:49 44.1 °F /  6.7 °C 37.4 °F /  3 °C 30.10in /  1019.2hPa NNW 2.4mph /  3.9km/h 6mph /  9.7km/h 77% 0.00in /  0mm 0 W/m2
21:54 44 °F /  6.7 °C 37.3 °F /  2.9 °C 30.10in /  1019.2hPa NW 2.1mph /  3.4km/h 5mph /  8km/h 77% 0.00in /  0mm 0 W/m2
21:59 43.9 °F /  6.6 °C 37.2 °F /  2.9 °C 30.10in /  1019.2hPa NW 1.7mph /  2.7km/h 5mph /  8km/h 77% 0.00in /  0mm 0 W/m2
22:04 43.9 °F /  6.6 °C 37.2 °F /  2.9 °C 30.10in /  1019.2hPa NNW 3.6mph /  5.8km/h 7mph /  11.3km/h 77% 0.00in /  0mm 0 W/m2
22:09 43.7 °F /  6.5 °C 37 °F /  2.8 °C 30.11in /  1019.5hPa NNE 1.8mph /  2.9km/h 7mph /  11.3km/h 77% 0.00in /  0mm 0 W/m2
22:14 43.5 °F /  6.4 °C 36.9 °F /  2.7 °C 30.11in /  1019.5hPa NNE 2.4mph /  3.9km/h 5mph /  8km/h 77% 0.00in /  0mm 0 W/m2
22:19 43.5 °F /  6.4 °C 36.9 °F /  2.7 °C 30.11in /  1019.5hPa NNW 2mph /  3.2km/h 5mph /  8km/h 77% 0.00in /  0mm 0 W/m2
22:24 43.4 °F /  6.3 °C 36.4 °F /  2.4 °C 30.11in /  1019.5hPa NNW 2.6mph /  4.2km/h 5mph /  8km/h 76% 0.00in /  0mm 0 W/m2
22:29 43.3 °F /  6.3 °C 36.3 °F /  2.4 °C 30.11in /  1019.5hPa NNW 2.2mph /  3.5km/h 5mph /  8km/h 76% 0.00in /  0mm 0 W/m2
22:34 43.3 °F /  6.3 °C 36.3 °F /  2.4 °C 30.11in /  1019.5hPa NNW 1.6mph /  2.6km/h 5mph /  8km/h 76% 0.00in /  0mm 0 W/m2
22:39 43.2 °F /  6.2 °C 36 °F /  2.2 °C 30.11in /  1019.5hPa NNW 2.4mph /  3.9km/h 5mph /  8km/h 75.6% 0.00in /  0mm 0 W/m2
22:44 43.2 °F /  6.2 °C 35.8 °F /  2.1 °C 30.11in /  1019.5hPa NW 2.7mph /  4.3km/h 5mph /  8km/h 75% 0.00in /  0mm 0 W/m2
22:49 43 °F /  6.1 °C 35.6 °F /  2 °C 30.11in /  1019.5hPa NW 1.5mph /  2.4km/h 5mph /  8km/h 75% 0.00in /  0mm 0 W/m2
22:54 42.9 °F /  6.1 °C 35.5 °F /  1.9 °C 30.12in /  1019.9hPa NNW 1.2mph /  1.9km/h 4mph /  6.4km/h 75% 0.00in /  0mm 0 W/m2
22:59 42.8 °F /  6 °C 35.6 °F /  2 °C 30.12in /  1019.9hPa NNW 0.9mph /  1.4km/h 3mph /  4.8km/h 75.5% 0.00in /  0mm 0 W/m2
23:04 42.5 °F /  5.8 °C 35.5 °F /  1.9 °C 30.12in /  1019.9hPa NNW 0.4mph /  0.6km/h 2mph /  3.2km/h 75.8% 0.00in /  0mm 0 W/m2
23:09 42.4 °F /  5.8 °C 35.3 °F /  1.8 °C 30.12in /  1019.9hPa NNW 0.5mph /  0.8km/h 2mph /  3.2km/h 76% 0.00in /  0mm 0 W/m2
23:14 42.3 °F /  5.7 °C 35.2 °F /  1.8 °C 30.12in /  1019.9hPa NNW 2.7mph /  4.3km/h 6mph /  9.7km/h 76% 0.00in /  0mm 0 W/m2
23:19 42.1 °F /  5.6 °C 35.1 °F /  1.7 °C 30.12in /  1019.9hPa North 3.8mph /  6.1km/h 4mph /  6.4km/h 76% 0.00in /  0mm 0 W/m2
23:24 42.2 °F /  5.7 °C 35.1 °F /  1.7 °C 30.13in /  1020.2hPa North 3.8mph /  6.1km/h 6mph /  9.7km/h 76% 0.00in /  0mm 0 W/m2
23:29 42.3 °F /  5.7 °C 35.3 °F /  1.8 °C 30.13in /  1020.2hPa North 3.8mph /  6.1km/h 8mph /  12.9km/h 76% 0.00in /  0mm 0 W/m2
23:34 42.4 °F /  5.8 °C 35.4 °F /  1.9 °C 30.13in /  1020.2hPa NW 2.9mph /  4.7km/h 7mph /  11.3km/h 76% 0.00in /  0mm 0 W/m2
23:39 42.3 °F /  5.7 °C 35.3 °F /  1.8 °C 30.13in /  1020.2hPa NNW 4mph /  6.4km/h 8mph /  12.9km/h 76% 0.00in /  0mm 0 W/m2
23:44 42.3 °F /  5.7 °C 35.2 °F /  1.8 °C 30.14in /  1020.5hPa NNW 2.2mph /  3.5km/h 4mph /  6.4km/h 76% 0.00in /  0mm 0 W/m2
23:49 42.3 °F /  5.7 °C 35.2 °F /  1.8 °C 30.14in /  1020.5hPa NNW 3.2mph /  5.1km/h 7mph /  11.3km/h 76% 0.00in /  0mm 0 W/m2
23:54 42.2 °F /  5.7 °C 35.2 °F /  1.8 °C 30.14in /  1020.5hPa NNW 2.3mph /  3.7km/h 6mph /  9.7km/h 76% 0.00in /  0mm 0 W/m2
23:59 42 °F /  5.6 °C 35 °F /  1.7 °C 30.14in /  1020.5hPa NNW 1.4mph /  2.3km/h 3mph /  4.8km/h 76% 0.00in /  0mm 0 W/m2
Bath Spa Weather
Compliments of Weather Underground - 2 mb